createdAt,value
2019-05-23T16:45:13.925Z,22.65
2019-05-23T16:45:48.663Z,22.58
2019-05-23T16:46:23.434Z,22.64
2019-05-23T16:46:58.209Z,24.91
2019-05-23T16:47:32.983Z,25.68
2019-05-23T16:48:10.572Z,24.64
2019-05-23T16:48:45.381Z,24.09
2019-05-23T16:49:20.100Z,24.06
2019-05-23T16:49:54.872Z,23.69
2019-05-23T16:50:29.655Z,23.63
2019-05-23T16:51:04.488Z,23.75
2019-05-23T16:51:39.204Z,23.67
2019-05-23T16:52:13.934Z,23.32
2019-05-23T16:52:51.657Z,23.07
2019-05-23T16:53:26.311Z,23.16
2019-05-23T16:54:01.097Z,23.32
2019-05-23T16:54:35.853Z,23.25
2019-05-23T16:55:11.294Z,23.12
2019-05-23T16:55:45.417Z,23.04
2019-05-23T16:56:20.157Z,23.08
2019-05-23T16:56:54.914Z,23.03
2019-05-23T16:57:32.549Z,23.15
2019-05-23T16:58:07.344Z,23.25
2019-05-23T16:58:42.076Z,23.38
2019-05-23T16:59:16.845Z,23.22
2019-05-23T16:59:51.616Z,23.18
2019-05-23T17:00:26.509Z,23.15
2019-05-23T17:01:01.155Z,23.09
2019-05-23T17:01:36.089Z,23.21
2019-05-23T17:02:13.512Z,23.17
2019-05-23T17:02:48.362Z,23.13
2019-05-23T17:03:23.063Z,23.18
2019-05-23T17:03:57.858Z,23.14
2019-05-23T17:04:32.607Z,23.29
2019-05-23T17:05:07.369Z,23.08
2019-05-23T17:05:42.112Z,23.1
2019-05-23T17:06:54.705Z,23.08
2019-05-23T17:07:29.340Z,23.15
2019-05-23T17:08:04.222Z,23.42
2019-05-23T17:08:38.915Z,23.49
2019-05-23T17:09:13.638Z,24.16
2019-05-23T17:09:48.437Z,24.46
2019-05-23T17:10:23.180Z,24.53
2019-05-23T17:10:57.941Z,24.28
2019-05-23T17:11:35.560Z,24.49
2019-05-23T17:12:10.365Z,24.63
2019-05-23T17:12:45.107Z,24.36
2019-05-23T17:13:19.862Z,23.78
2019-05-23T17:13:57.040Z,23.87
2019-05-23T17:15:04.245Z,24.01
2019-05-23T17:15:38.922Z,23.93
2019-05-23T17:16:16.587Z,23.81
2019-05-23T17:16:51.334Z,23.99
2019-05-23T17:17:26.182Z,23.69
2019-05-23T17:18:00.873Z,23.81
2019-05-23T17:18:35.646Z,23.54
2019-05-23T17:19:10.493Z,23.17
2019-05-23T17:19:45.181Z,23
2019-05-23T17:20:20.259Z,23.08
2019-05-23T17:20:57.555Z,23.43
2019-05-23T17:21:34.316Z,23.46
2019-05-23T17:22:07.131Z,23.57
2019-05-23T17:22:41.862Z,23.71
2019-05-23T17:23:16.624Z,23.65
2019-05-23T17:23:51.398Z,23.46
2019-05-23T17:24:26.206Z,23.47
2019-05-23T17:25:00.957Z,23.41
2019-05-23T17:25:38.738Z,23.53
2019-05-23T17:26:13.384Z,23.42
2019-05-23T17:26:48.153Z,23.22
2019-05-23T17:27:39.325Z,23.05
2019-05-23T17:28:11.588Z,23.05
2019-05-23T17:28:43.648Z,23.05
2019-05-23T17:29:19.722Z,23.05
2019-05-23T17:29:48.011Z,23.05
2019-05-23T17:30:20.192Z,23.05
2019-05-23T17:30:52.369Z,23.05
2019-05-23T17:31:24.530Z,23.05
2019-05-23T17:31:56.806Z,23.05
2019-05-23T17:32:28.959Z,23.05
2019-05-23T17:33:01.138Z,23.05
2019-05-23T17:33:33.361Z,23.05
2019-05-23T17:41:52.317Z,23.51
